Time;durP1;ratioP1;P1;durP2;ratioP2;P2;SDS_P1;SDS_P2;PMS_P1;PMS_P2;Temp;Humidity;BMP_temperature;BMP_pressure;BME280_temperature;BME280_humidity;BME280_pressure;Samples;Min_cycle;Max_cycle;Signal;HPM_P1;HPM_P2
2023/09/08 00:01:32;;;;;;;12.47;8.87;;;21.00;92.50;;;21.44;57.03;95479.25;5044001;28;20883;-58
2023/09/08 00:04:00;;;;;;;13.83;10.63;;;21.00;92.80;;;21.43;57.75;95477.59;5039812;28;20489;-58
2023/09/08 00:06:28;;;;;;;12.07;9.13;;;21.00;93.70;;;21.42;57.67;95485.81;5039940;28;20535;-58
2023/09/08 00:08:55;;;;;;;10.47;8.53;;;21.00;93.80;;;21.40;57.65;95479.84;5041559;28;20471;-59
2023/09/08 00:11:22;;;;;;;14.10;10.43;;;21.00;93.90;;;21.38;58.49;95480.03;5035777;28;20492;-60
2023/09/08 00:13:50;;;;;;;12.60;11.00;;;20.90;94.50;;;21.34;59.73;95476.06;5039560;28;20525;-59
2023/09/08 00:16:17;;;;;;;14.43;11.23;;;20.90;95.80;;;21.28;59.34;95484.88;5035027;28;20448;-58
2023/09/08 00:18:44;;;;;;;18.60;11.40;;;20.90;95.60;;;21.22;59.52;95480.28;5039709;28;20501;-60
2023/09/08 00:21:13;;;;;;;12.20;10.97;;;20.80;96.10;;;21.17;60.84;95466.66;5036845;28;20445;-58
2023/09/08 00:23:40;;;;;;;13.37;9.90;;;20.80;97.00;;;21.11;60.42;95466.38;5040355;28;20848;-59
2023/09/08 00:26:07;;;;;;;16.13;10.03;;;20.70;96.90;;;21.09;60.49;95465.75;5037996;28;20453;-59
2023/09/08 00:28:35;;;;;;;11.97;10.50;;;20.70;97.10;;;21.10;60.52;95474.59;5039852;28;20833;-58
2023/09/08 00:31:02;;;;;;;19.40;10.97;;;20.70;96.90;;;21.10;60.64;95467.41;5035810;28;20452;-59
2023/09/08 00:33:29;;;;;;;12.73;11.07;;;20.70;97.80;;;21.11;60.82;95458.34;5043465;28;20475;-58
2023/09/08 00:35:57;;;;;;;11.03;10.03;;;20.70;97.80;;;21.12;61.04;95462.69;5039992;28;20945;-58
2023/09/08 00:38:26;;;;;;;10.17;9.17;;;20.60;97.80;;;21.14;60.64;95463.31;5043204;28;20547;-58
2023/09/08 00:41:24;;;;;;;17.93;13.33;;;20.70;97.80;;;21.18;60.85;95457.59;5041310;28;20449;-59
2023/09/08 00:43:51;;;;;;;10.57;8.07;;;20.70;97.70;;;21.16;60.42;95460.47;5034543;28;20569;-59
2023/09/08 00:46:19;;;;;;;16.87;8.80;;;20.70;97.50;;;21.12;60.60;95460.03;5040974;28;20459;-58
2023/09/08 00:48:46;;;;;;;9.80;7.97;;;20.70;97.80;;;21.11;60.41;95458.34;5048580;28;20468;-57
2023/09/08 00:51:13;;;;;;;9.20;8.30;;;20.70;97.70;;;21.11;60.35;95453.00;5042471;28;21005;-59
2023/09/08 00:53:42;;;;;;;10.60;8.07;;;20.60;97.50;;;21.10;60.73;95455.88;5043224;28;20476;-58
2023/09/08 00:56:10;;;;;;;10.07;6.70;;;20.60;97.80;;;21.06;60.43;95455.44;5041335;28;21035;-58
2023/09/08 00:58:38;;;;;;;10.80;6.07;;;20.60;97.70;;;21.05;60.20;95452.94;5043611;28;20645;-58
2023/09/08 01:01:06;;;;;;;7.60;6.87;;;20.60;97.50;;;21.02;60.21;95451.50;5042618;28;20460;-58
2023/09/08 01:03:33;;;;;;;13.63;6.87;;;20.60;97.40;;;20.99;60.20;95449.22;5044707;28;20595;-57
2023/09/08 01:06:01;;;;;;;8.73;6.93;;;20.60;97.50;;;20.98;59.75;95452.06;5047015;28;20825;-58
2023/09/08 01:08:28;;;;;;;10.40;5.80;;;20.50;97.20;;;20.96;59.80;95457.63;5040068;28;20855;-59
2023/09/08 01:10:56;;;;;;;10.70;6.63;;;20.50;97.20;;;20.95;59.82;95447.94;5042783;28;20453;-57
2023/09/08 01:13:24;;;;;;;7.13;6.20;;;20.50;97.30;;;20.93;59.62;95449.97;5040626;28;20602;-58
2023/09/08 01:15:51;;;;;;;12.17;7.20;;;20.50;97.20;;;20.90;59.94;95450.34;5041341;28;20460;-59
2023/09/08 01:18:18;;;;;;;8.20;7.10;;;20.40;97.40;;;20.88;60.07;95447.03;5038212;28;20452;-57
2023/09/08 01:21:10;;;;;;;8.07;7.20;;;20.40;97.50;;;20.86;60.20;95447.22;5041064;28;20529;-60
2023/09/08 01:23:50;;;;;;;11.60;6.93;;;20.40;97.70;;;20.87;60.45;95445.38;5042267;28;20841;-58
2023/09/08 01:26:19;;;;;;;6.50;5.90;;;20.40;97.70;;;20.85;60.35;95450.91;5041195;28;20451;-59
2023/09/08 01:28:47;;;;;;;6.13;5.60;;;20.40;97.90;;;20.83;60.25;95444.09;5039867;28;20526;-58
2023/09/08 01:31:14;;;;;;;10.43;5.30;;;20.40;97.90;;;20.81;60.49;95449.63;5041741;28;20449;-60
2023/09/08 01:33:41;;;;;;;15.60;6.53;;;20.40;98.00;;;20.77;60.51;95435.81;5040388;28;20549;-58
2023/09/08 01:36:09;;;;;;;7.57;6.77;;;20.30;97.90;;;20.74;60.44;95436.19;5038527;28;20968;-58
2023/09/08 01:38:36;;;;;;;6.47;5.77;;;20.30;97.90;;;20.71;60.90;95433.06;5039434;28;20473;-59
2023/09/08 01:41:03;;;;;;;9.67;7.27;;;20.30;98.00;;;20.70;60.50;95432.25;5041005;28;20525;-59
2023/09/08 01:43:32;;;;;;;6.20;5.63;;;20.30;97.90;;;20.69;60.66;95433.25;5042477;28;21058;-58
2023/09/08 01:45:59;;;;;;;7.80;6.33;;;20.20;98.30;;;20.67;60.28;95437.16;5044347;28;20459;-59
2023/09/08 01:48:27;;;;;;;9.80;6.10;;;20.20;97.90;;;20.65;60.65;95434.66;5039692;28;20485;-59
2023/09/08 01:50:54;;;;;;;7.13;5.37;;;20.20;98.10;;;20.64;60.47;95440.16;5043649;28;20985;-59
2023/09/08 01:53:21;;;;;;;7.00;6.30;;;20.20;98.10;;;20.65;60.45;95445.34;5040751;28;20594;-58
2023/09/08 01:55:48;;;;;;;8.50;6.27;;;20.20;98.10;;;20.67;60.32;95437.97;5038301;28;20451;-59
2023/09/08 02:01:51;;;;;;;9.17;6.20;;;20.20;98.00;;;20.64;60.43;95424.94;5021592;28;20532;-59
2023/09/08 02:04:19;;;;;;;8.17;6.30;;;20.20;97.80;;;20.62;60.06;95432.34;5043875;28;20552;-59
2023/09/08 02:06:46;;;;;;;14.40;6.50;;;20.20;97.80;;;20.57;60.38;95424.88;5042325;28;20467;-60
2023/09/08 02:09:15;;;;;;;8.50;6.50;;;20.10;97.90;;;20.56;60.64;95431.22;5045955;28;20984;-60
2023/09/08 02:11:42;;;;;;;9.77;6.83;;;20.10;98.00;;;20.55;60.56;95420.72;5042880;28;21016;-59
2023/09/08 02:14:09;;;;;;;7.87;6.43;;;20.10;98.00;;;20.51;60.55;95425.63;5039986;28;20872;-59
2023/09/08 02:16:36;;;;;;;11.27;6.60;;;20.10;98.10;;;20.50;60.59;95428.50;5041378;28;20958;-60
2023/09/08 02:19:05;;;;;;;8.40;6.50;;;20.10;98.20;;;20.48;60.92;95425.16;5039379;28;20476;-61
2023/09/08 02:21:32;;;;;;;10.10;6.70;;;20.10;98.40;;;20.46;60.85;95422.66;5040597;28;20518;-60
2023/09/08 02:24:00;;;;;;;10.93;6.97;;;20.00;98.30;;;20.44;60.96;95423.91;5042075;28;20579;-60
2023/09/08 02:26:27;;;;;;;9.90;6.90;;;20.00;98.60;;;20.42;61.11;95432.09;5037394;28;20457;-59
2023/09/08 02:28:54;;;;;;;8.27;6.87;;;20.00;98.60;;;20.36;61.30;95428.31;5040692;28;20467;-60
2023/09/08 02:31:22;;;;;;;6.80;6.20;;;19.90;98.60;;;20.29;61.50;95418.56;5038545;28;20469;-60
2023/09/08 02:33:49;;;;;;;9.63;6.70;;;19.90;98.90;;;20.23;61.74;95418.31;5041418;28;20972;-60
2023/09/08 02:36:17;;;;;;;8.17;6.00;;;19.80;99.20;;;20.21;61.98;95414.97;5037734;28;20456;-61
2023/09/08 02:38:45;;;;;;;9.17;7.17;;;19.80;99.20;;;20.20;62.39;95408.00;5041463;28;20475;-61
2023/09/08 02:41:12;;;;;;;8.17;6.00;;;19.80;99.60;;;20.23;62.38;95422.81;5041085;28;20455;-60
2023/09/08 02:43:39;;;;;;;7.73;6.97;;;19.80;99.70;;;20.23;62.64;95422.81;5035626;28;20483;-60
2023/09/08 02:46:09;;;;;;;8.03;6.40;;;19.80;99.90;;;20.24;62.86;95421.81;5045284;28;20456;-59
2023/09/08 02:48:36;;;;;;;10.80;7.10;;;19.80;99.90;;;20.22;62.84;95416.66;5039004;28;20499;-60
2023/09/08 02:51:03;;;;;;;7.27;6.57;;;19.80;99.90;;;20.17;63.50;95415.53;5039231;28;20449;-59
2023/09/08 02:53:32;;;;;;;11.20;6.93;;;19.70;99.90;;;20.15;63.00;95422.91;5044191;28;20495;-60
2023/09/08 02:55:59;;;;;;;9.30;6.70;;;19.70;99.90;;;20.14;63.10;95418.56;5043264;28;20464;-60
2023/09/08 02:58:27;;;;;;;8.63;6.20;;;19.70;99.90;;;20.11;63.10;95414.47;5034630;28;20488;-60
2023/09/08 03:00:54;;;;;;;12.53;6.37;;;19.70;99.90;;;20.09;63.16;95411.13;5044031;28;20460;-59
2023/09/08 03:03:22;;;;;;;6.80;5.73;;;19.60;99.90;;;20.06;62.85;95407.00;5042825;28;20464;-60
2023/09/08 03:05:49;;;;;;;9.30;6.13;;;19.60;99.90;;;20.05;62.84;95409.84;5041904;28;20457;-60
2023/09/08 03:08:16;;;;;;;8.73;6.07;;;19.60;99.90;;;20.02;63.29;95410.22;5037578;28;20468;-60
2023/09/08 03:10:45;;;;;;;7.67;6.87;;;19.60;99.90;;;20.00;63.41;95413.09;5041353;28;20952;-60
2023/09/08 03:13:12;;;;;;;11.27;6.93;;;19.60;99.90;;;19.98;63.49;95407.06;5039537;28;20538;-59
2023/09/08 03:15:40;;;;;;;8.37;6.27;;;19.50;99.90;;;19.96;63.57;95411.78;5040234;28;20476;-59
2023/09/08 03:18:07;;;;;;;10.30;6.43;;;19.50;99.90;;;19.94;63.49;95416.50;5040379;28;20466;-60
2023/09/08 03:20:34;;;;;;;8.60;6.10;;;19.50;99.90;;;19.93;63.35;95416.66;5039108;28;20449;-60
2023/09/08 03:23:01;;;;;;;10.43;6.87;;;19.50;99.90;;;19.88;63.60;95415.38;5041998;28;20467;-60
2023/09/08 03:25:29;;;;;;;9.20;6.90;;;19.50;99.90;;;19.86;63.55;95411.22;5036202;28;20480;-60
2023/09/08 03:27:57;;;;;;;11.43;7.27;;;19.40;99.90;;;19.84;64.02;95421.25;5041480;28;20987;-60
2023/09/08 03:30:24;;;;;;;8.83;5.90;;;19.40;99.90;;;19.78;63.50;95414.81;5038676;28;20479;-60
2023/09/08 03:32:52;;;;;;;9.00;6.53;;;19.40;99.90;;;19.72;63.64;95415.53;5041888;28;20496;-61
2023/09/08 03:35:19;;;;;;;8.53;5.73;;;19.30;99.90;;;19.70;63.19;95415.72;5039448;28;20468;-60
2023/09/08 03:37:46;;;;;;;8.00;7.20;;;19.30;99.90;;;19.64;63.43;95415.59;5041912;28;20511;-60
2023/09/08 03:40:14;;;;;;;7.93;6.67;;;19.30;99.90;;;19.61;63.50;95423.97;5037847;28;21009;-59
2023/09/08 03:42:42;;;;;;;8.93;6.77;;;19.20;99.90;;;19.57;63.02;95420.84;5045833;28;20517;-61
2023/09/08 03:45:11;;;;;;;9.20;6.67;;;19.10;99.90;;;19.55;63.53;95419.38;5041525;28;20480;-62
2023/09/08 03:47:38;;;;;;;11.37;6.00;;;19.10;99.90;;;19.53;63.01;95419.53;5037601;28;20464;-61
2023/09/08 03:50:07;;;;;;;8.07;5.47;;;19.10;99.90;;;19.48;63.13;95420.09;5041793;28;20460;-60
2023/09/08 03:52:34;;;;;;;11.80;6.90;;;19.10;99.90;;;19.45;63.61;95415.13;5040528;28;20603;-60
2023/09/08 03:55:01;;;;;;;21.10;7.47;;;19.00;99.90;;;19.42;63.48;95420.00;5042874;28;20867;-59
2023/09/08 03:57:28;;;;;;;14.20;7.43;;;19.00;99.90;;;19.35;64.02;95420.72;5041173;28;20451;-61
2023/09/08 03:59:56;;;;;;;9.27;6.93;;;19.00;99.90;;;19.34;64.15;95420.91;5037386;28;20849;-60
2023/09/08 04:02:24;;;;;;;7.63;6.30;;;18.90;99.90;;;19.32;63.97;95421.09;5046273;28;20451;-61
2023/09/08 04:04:52;;;;;;;12.57;7.10;;;18.90;99.90;;;19.30;63.75;95419.59;5040068;28;20473;-61
2023/09/08 04:07:19;;;;;;;7.80;6.30;;;18.90;99.90;;;19.26;64.22;95416.47;5043766;28;20535;-60
2023/09/08 04:09:46;;;;;;;16.50;8.00;;;18.90;99.90;;;19.23;63.90;95422.16;5040697;28;20472;-59
2023/09/08 04:12:13;;;;;;;8.00;7.20;;;18.90;99.90;;;19.23;64.33;95416.84;5040156;28;20863;-60
2023/09/08 04:14:40;;;;;;;7.77;6.90;;;18.80;99.90;;;19.20;63.92;95416.38;5043893;28;20805;-61
2023/09/08 04:17:08;;;;;;;7.73;5.83;;;18.80;99.90;;;19.16;63.58;95419.41;5042999;28;20463;-61
2023/09/08 04:19:36;;;;;;;10.50;7.13;;;18.80;99.90;;;19.11;63.85;95427.09;5043787;28;20476;-60
2023/09/08 04:22:04;;;;;;;7.83;6.20;;;18.70;99.90;;;19.11;64.13;95420.94;5045319;28;20529;-60
2023/09/08 04:24:36;;;;;;;12.53;6.63;;;18.70;99.90;;;19.09;64.41;95421.13;5043130;28;20533;-60
2023/09/08 04:27:03;;;;;;;12.57;6.73;;;18.70;99.90;;;19.06;64.22;95426.81;5042039;28;20456;-60
2023/09/08 04:29:31;;;;;;;10.37;6.43;;;18.70;99.90;;;19.06;63.74;95426.81;5040609;28;20479;-60
2023/09/08 04:31:59;;;;;;;8.67;6.70;;;18.70;99.90;;;19.03;64.22;95432.50;5045107;28;20455;-59
2023/09/08 04:34:26;;;;;;;11.13;6.20;;;18.60;99.90;;;18.99;63.94;95433.84;5043227;28;20506;-61
2023/09/08 04:36:55;;;;;;;13.03;6.87;;;18.60;99.90;;;18.97;64.46;95431.34;5042094;28;20461;-61
2023/09/08 04:39:22;;;;;;;8.30;6.13;;;18.60;99.90;;;18.98;64.48;95435.69;5045420;28;20476;-61
2023/09/08 04:41:50;;;;;;;9.97;6.80;;;18.60;99.90;;;19.11;64.38;95436.94;5046255;28;20510;-61
2023/09/08 04:44:17;;;;;;;9.23;6.40;;;18.70;99.90;;;19.21;64.16;95437.53;5044762;28;20577;-62
2023/09/08 04:46:45;;;;;;;7.70;6.23;;;18.80;99.90;;;19.30;64.22;95435.59;5039495;28;20471;-61
2023/09/08 04:49:13;;;;;;;9.73;7.17;;;18.90;99.90;;;19.36;63.50;95437.53;5044317;28;20506;-60
2023/09/08 04:51:40;;;;;;;10.43;6.67;;;18.90;99.90;;;19.42;63.93;95444.00;5042162;28;20507;-61
2023/09/08 04:54:09;;;;;;;10.10;7.27;;;19.00;99.90;;;19.46;63.70;95430.13;5036523;28;20495;-60
2023/09/08 04:56:36;;;;;;;9.40;7.53;;;19.00;99.90;;;19.49;63.63;95431.63;5042744;28;20464;-60
2023/09/08 04:59:03;;;;;;;9.03;7.00;;;19.10;99.90;;;19.49;63.42;95436.94;5039929;28;20552;-61
2023/09/08 05:01:32;;;;;;;14.57;6.90;;;19.10;99.90;;;19.48;63.40;95435.28;5045046;28;20478;-61
2023/09/08 05:04:00;;;;;;;12.97;8.40;;;19.10;99.90;;;19.48;63.93;95438.78;5036527;28;21184;-60
2023/09/08 05:06:27;;;;;;;11.10;8.27;;;19.10;99.90;;;19.51;63.59;95434.91;5037542;28;20456;-60
2023/09/08 05:08:55;;;;;;;20.10;8.40;;;19.10;99.90;;;19.55;63.89;95438.91;5048761;28;20483;-60
2023/09/08 05:11:23;;;;;;;13.83;9.00;;;19.10;99.90;;;19.64;64.32;95443.13;5044332;28;20536;-59
2023/09/08 05:13:51;;;;;;;14.10;9.03;;;19.20;99.90;;;19.77;63.77;95447.88;5041319;28;20511;-61
2023/09/08 05:16:25;;;;;;;14.80;8.93;;;19.30;99.90;;;19.86;63.31;95437.91;5044374;28;20466;-60
2023/09/08 05:18:52;;;;;;;13.50;8.10;;;19.40;99.90;;;19.96;63.45;95441.16;5042288;28;20479;-61
2023/09/08 05:21:20;;;;;;;12.50;9.77;;;19.50;99.90;;;20.02;63.50;95447.59;5041399;28;20520;-61
2023/09/08 05:23:47;;;;;;;16.13;8.60;;;19.60;99.90;;;20.06;64.07;95444.38;5042754;28;20515;-59
2023/09/08 05:26:14;;;;;;;22.93;8.13;;;19.60;99.90;;;20.12;63.69;95437.47;5042119;28;20471;-60
2023/09/08 05:28:43;;;;;;;20.93;9.83;;;19.70;99.90;;;20.23;63.55;95439.69;5041171;28;20464;-60
2023/09/08 05:31:10;;;;;;;21.93;9.17;;;19.80;99.90;;;20.36;63.42;95440.88;5038463;28;20455;-60
2023/09/08 05:33:37;;;;;;;12.97;8.03;;;19.90;99.90;;;20.49;63.10;95446.34;5043610;28;20500;-60
2023/09/08 05:36:05;;;;;;;16.53;8.70;;;20.00;99.90;;;20.63;62.99;95450.00;5043448;28;20449;-60
2023/09/08 05:38:32;;;;;;;15.37;8.40;;;20.10;99.90;;;20.77;62.88;95445.66;5044524;28;20567;-62
2023/09/08 05:41:00;;;;;;;10.90;8.60;;;20.20;99.90;;;20.96;62.50;95441.56;5044806;28;20452;-61
2023/09/08 05:43:27;;;;;;;11.97;9.27;;;20.40;99.90;;;21.19;62.49;95451.22;5043414;28;20480;-61
2023/09/08 05:45:55;;;;;;;19.30;8.77;;;20.60;99.90;;;21.38;62.16;95452.41;5044539;28;20460;-62
2023/09/08 05:48:23;;;;;;;10.97;7.90;;;20.80;99.90;;;21.62;61.97;95453.91;5042194;28;20909;-61
2023/09/08 05:50:50;;;;;;;11.27;8.63;;;21.00;99.90;;;21.83;61.08;95440.47;5039749;28;20537;-62
2023/09/08 05:53:17;;;;;;;13.80;8.83;;;21.20;99.90;;;22.06;60.42;95450.09;5041813;28;20914;-63
2023/09/08 05:55:44;;;;;;;10.80;7.20;;;21.40;99.90;;;22.31;59.81;95455.00;5038825;28;20968;-62
2023/09/08 05:58:12;;;;;;;14.73;8.20;;;21.70;99.30;;;22.49;59.21;95455.25;5041653;28;20480;-63
2023/09/08 06:00:39;;;;;;;12.80;7.90;;;21.90;98.80;;;22.70;59.01;95457.00;5040867;28;20460;-63
2023/09/08 06:03:08;;;;;;;10.47;6.57;;;22.10;98.30;;;22.88;58.37;95453.75;5041970;28;20463;-61
2023/09/08 06:05:35;;;;;;;17.37;6.37;;;22.30;97.70;;;23.08;58.15;95452.97;5040962;28;20486;-63
2023/09/08 06:08:02;;;;;;;9.50;7.30;;;22.40;97.50;;;23.26;57.09;95449.72;5041714;28;20455;-63
2023/09/08 06:10:30;;;;;;;10.47;6.67;;;22.60;97.20;;;23.47;56.56;95454.09;5036469;28;20457;-61
2023/09/08 06:12:57;;;;;;;14.90;6.90;;;22.80;96.70;;;23.66;56.24;95451.63;5041624;28;20483;-63
2023/09/08 06:15:25;;;;;;;8.80;6.23;;;23.00;96.40;;;23.89;56.22;95453.88;5039711;28;20858;-62
2023/09/08 06:17:52;;;;;;;7.53;6.53;;;23.20;95.70;;;24.09;55.69;95451.16;5045209;28;20464;-61
2023/09/08 06:20:21;;;;;;;10.03;6.90;;;23.40;95.30;;;24.26;54.38;95449.69;5036951;28;20964;-63
2023/09/08 06:22:48;;;;;;;11.37;6.00;;;23.60;94.60;;;24.45;54.51;95450.66;5036469;28;20456;-62
2023/09/08 06:25:16;;;;;;;13.83;6.20;;;23.80;94.60;;;24.67;53.65;95451.19;5040376;28;20934;-63
2023/09/08 06:27:43;;;;;;;8.97;6.10;;;24.00;93.60;;;24.85;52.77;95453.19;5047471;28;20486;-63
2023/09/08 06:30:13;;;;;;;11.40;5.23;;;24.20;93.00;;;24.99;52.20;95462.03;5035155;28;20476;-62
2023/09/08 06:32:40;;;;;;;11.90;6.10;;;24.30;91.80;;;25.09;51.21;95460.72;5043486;28;20460;-62
2023/09/08 06:35:09;;;;;;;13.17;5.63;;;24.40;91.10;;;25.20;51.19;95455.47;5038474;28;21338;-62
2023/09/08 06:37:38;;;;;;;13.83;5.47;;;24.50;90.40;;;25.33;50.85;95460.00;5041913;28;20457;-62
2023/09/08 06:40:07;;;;;;;9.77;5.50;;;24.70;90.10;;;25.46;49.68;95469.84;5039751;28;20475;-63
2023/09/08 06:42:34;;;;;;;10.40;4.80;;;24.80;87.40;;;25.49;49.37;95465.88;5027683;28;20451;-60
2023/09/08 06:45:01;;;;;;;10.73;4.63;;;24.90;85.70;;;25.55;48.86;95476.59;5033356;28;20556;-62
2023/09/08 06:47:29;;;;;;;8.80;4.70;;;25.00;85.30;;;25.65;48.22;95476.09;5034670;28;20534;-62
2023/09/08 06:49:56;;;;;;;10.00;4.60;;;25.10;83.60;;;25.73;48.08;95465.06;5031192;28;20482;-62
2023/09/08 06:52:24;;;;;;;7.13;5.23;;;25.20;83.80;;;25.92;47.96;95462.44;5036766;28;20479;-61
2023/09/08 06:54:53;;;;;;;7.00;4.63;;;25.30;82.50;;;26.17;47.32;95472.38;5037600;28;20502;-62
2023/09/08 06:57:21;;;;;;;7.03;5.10;;;25.50;81.30;;;26.41;46.84;95471.47;5033006;28;20475;-61
2023/09/08 06:59:48;;;;;;;6.60;4.33;;;25.70;81.30;;;26.70;46.69;95469.09;5036321;28;20988;-60
2023/09/08 07:02:16;;;;;;;5.60;4.87;;;26.00;80.30;;;26.89;46.54;95474.47;5035714;28;20479;-62
2023/09/08 07:04:43;;;;;;;11.00;5.30;;;26.10;79.30;;;27.04;45.79;95469.50;5034339;28;20475;-63
2023/09/08 07:07:14;;;;;;;9.43;5.20;;;26.30;78.50;;;27.13;45.39;95468.13;5036746;28;21007;-63
2023/09/08 07:09:41;;;;;;;7.43;4.63;;;26.40;77.00;;;27.04;44.80;95479.50;5000380;28;20551;-61
2023/09/08 07:12:10;;;;;;;8.80;3.43;;;26.50;74.90;;;26.89;44.19;95475.28;5039616;28;20461;-62
2023/09/08 07:14:38;;;;;;;5.30;3.60;;;26.30;72.70;;;26.76;44.19;95473.59;5037760;28;20499;-62
2023/09/08 07:17:05;;;;;;;6.10;3.97;;;26.30;72.40;;;26.74;44.96;95473.00;5035873;28;20463;-63
2023/09/08 07:19:32;;;;;;;13.53;4.20;;;26.20;72.90;;;26.85;44.68;95474.13;5031110;28;20483;-61
2023/09/08 07:22:00;;;;;;;6.77;4.30;;;26.30;73.00;;;26.99;44.20;95477.47;5033881;28;20479;-63
2023/09/08 07:24:27;;;;;;;4.43;3.93;;;26.40;73.10;;;27.12;44.39;95476.47;5035847;28;20467;-62
2023/09/08 07:26:54;;;;;;;6.83;4.43;;;26.50;72.30;;;27.33;43.78;95467.06;5035898;28;20549;-62
2023/09/08 07:29:23;;;;;;;4.50;3.90;;;26.70;72.00;;;27.59;43.60;95471.25;5033697;28;20871;-61
2023/09/08 07:31:51;;;;;;;6.93;4.73;;;26.90;71.70;;;27.84;42.96;95470.19;5038387;28;20458;-60
2023/09/08 07:34:18;;;;;;;8.30;4.50;;;27.10;70.70;;;28.14;42.98;95470.13;5036047;28;20570;-62
2023/09/08 07:36:45;;;;;;;12.80;5.10;;;27.30;70.30;;;28.35;42.79;95467.88;5034924;28;20586;-61
2023/09/08 07:39:12;;;;;;;6.17;4.00;;;27.60;69.70;;;28.54;41.74;95469.38;5041513;28;21025;-60
2023/09/08 07:41:40;;;;;;;21.63;4.60;;;27.80;68.70;;;28.74;42.33;95465.50;5041958;28;20825;-60
2023/09/08 07:44:08;;;;;;;5.07;4.57;;;28.00;68.60;;;29.01;42.00;95468.44;5034664;28;20541;-61
2023/09/08 07:46:37;;;;;;;11.63;4.00;;;28.20;67.70;;;29.27;41.34;95461.66;5036287;28;20559;-61
2023/09/08 07:49:04;;;;;;;14.13;3.67;;;28.50;66.60;;;29.38;40.99;95469.97;5042261;28;20911;-61
2023/09/08 07:51:32;;;;;;;6.27;3.57;;;28.70;65.10;;;29.42;40.37;95465.69;5039385;28;20479;-61
2023/09/08 07:53:59;;;;;;;8.00;4.00;;;28.90;63.60;;;29.39;36.64;95458.06;5038021;28;20521;-61
2023/09/08 07:56:26;;;;;;;7.60;3.60;;;29.00;59.20;;;29.30;38.77;95474.72;5042803;28;20470;-63
2023/09/08 07:58:54;;;;;;;8.07;3.73;;;29.00;59.60;;;29.30;38.12;95463.88;5037096;28;20546;-62
2023/09/08 08:01:21;;;;;;;6.00;3.27;;;29.10;59.30;;;29.42;38.10;95460.28;5038662;28;20205;-61
2023/09/08 08:03:50;;;;;;;5.97;3.90;;;29.10;59.20;;;29.63;37.41;95453.31;5038401;28;20229;-60
2023/09/08 08:06:18;;;;;;;3.23;3.03;;;29.30;58.90;;;29.92;38.01;95453.28;5036352;28;20239;-62
2023/09/08 08:08:45;;;;;;;3.97;3.30;;;29.50;58.60;;;30.25;37.14;95455.13;5037503;28;20220;-62
2023/09/08 08:11:13;;;;;;;4.00;3.63;;;29.80;58.40;;;30.66;37.00;95458.44;5039462;28;20681;-61
2023/09/08 08:13:40;;;;;;;5.50;3.50;;;30.10;58.10;;;31.00;35.85;95449.31;5037883;28;20698;-60
2023/09/08 08:16:07;;;;;;;10.63;4.27;;;30.50;56.20;;;31.20;34.69;95440.56;5036628;28;20667;-60
2023/09/08 08:18:35;;;;;;;5.20;3.20;;;30.80;54.10;;;31.30;34.79;95446.13;5038182;28;20729;-60
2023/09/08 08:21:04;;;;;;;4.40;3.70;;;31.00;54.50;;;31.37;34.12;95452.19;5039843;28;20709;-60
2023/09/08 08:23:31;;;;;;;4.80;3.13;;;31.10;53.00;;;31.45;33.54;95448.97;5034809;28;20244;-59
2023/09/08 08:25:58;;;;;;;3.50;3.20;;;31.30;51.90;;;31.54;32.92;95453.97;5039726;28;20201;-62
2023/09/08 08:28:26;;;;;;;13.27;4.20;;;31.40;51.30;;;31.66;31.89;95448.38;5034953;28;20220;-62
2023/09/08 08:30:53;;;;;;;5.17;3.37;;;31.60;50.80;;;31.86;33.20;95445.81;5038965;28;20801;-63
2023/09/08 08:33:22;;;;;;;8.20;3.77;;;31.80;51.50;;;32.11;32.69;95447.91;5038839;28;20228;-63
2023/09/08 08:35:52;;;;;;;11.50;3.30;;;32.00;50.50;;;32.17;32.16;95446.06;5037439;28;20286;-62
2023/09/08 08:38:20;;;;;;;3.53;3.22;;;32.00;49.40;;;32.12;32.45;95440.59;5036636;28;20205;-63
2023/09/08 08:40:47;;;;;;;5.28;3.35;;;32.00;49.40;;;32.22;32.25;95442.56;5036235;28;20224;-61
2023/09/08 08:43:14;;;;;;;6.05;3.75;;;32.00;49.70;;;32.33;31.20;95445.09;5034153;28;20304;-61
2023/09/08 08:45:43;;;;;;;4.82;3.40;;;32.00;48.60;;;32.35;31.45;95440.19;5039006;28;21167;-61
2023/09/08 08:48:10;;;;;;;3.92;3.60;;;32.00;49.00;;;32.41;31.65;95440.19;5034621;28;20221;-61
2023/09/08 08:50:38;;;;;;;7.63;3.72;;;32.00;49.10;;;32.48;31.64;95433.44;5031069;28;20209;-60
2023/09/08 08:53:05;;;;;;;11.35;3.83;;;32.10;49.30;;;32.41;31.59;95426.59;5040846;28;20266;-61
2023/09/08 08:55:34;;;;;;;3.70;3.38;;;32.00;48.80;;;32.03;31.37;95418.44;5040802;28;20228;-63
2023/09/08 08:58:05;;;;;;;3.43;3.17;;;31.70;48.70;;;31.48;31.90;95425.06;5044135;28;20212;-63
2023/09/08 09:00:34;;;;;;;6.60;2.87;;;31.30;48.80;;;30.80;31.57;95431.69;5037642;28;20751;-61
2023/09/08 09:03:01;;;;;;;5.53;3.40;;;30.70;48.60;;;30.16;32.66;95437.63;5035785;28;20677;-62
2023/09/08 09:05:29;;;;;;;4.07;3.70;;;30.00;49.70;;;29.56;33.67;95425.53;5037910;28;20221;-61
2023/09/08 09:07:58;;;;;;;5.67;3.30;;;29.40;50.40;;;29.12;34.73;95423.41;5040676;28;20201;-60
2023/09/08 09:10:25;;;;;;;6.30;3.20;;;28.90;51.30;;;28.96;34.70;95430.44;5037848;28;20232;-66
2023/09/08 09:12:54;;;;;;;13.80;3.33;;;28.60;52.30;;;29.01;34.74;95421.59;5039303;28;20221;-62
2023/09/08 09:15:31;;;;;;;5.37;2.90;;;28.50;52.70;;;28.89;35.06;95427.91;5038873;28;20244;-61
2023/09/08 09:18:05;;;;;;;6.27;3.37;;;28.40;52.70;;;28.68;35.35;95423.13;5036664;28;20312;-62
2023/09/08 09:20:32;;;;;;;3.50;3.20;;;28.20;52.70;;;28.47;35.21;95428.09;5040604;28;20212;-61
2023/09/08 09:23:00;;;;;;;3.90;3.60;;;28.00;53.10;;;28.30;35.88;95429.88;5041702;28;20491;-63
2023/09/08 09:25:29;;;;;;;12.20;4.00;;;27.80;53.40;;;28.10;35.83;95427.56;5038704;28;20275;-62
2023/09/08 09:28:00;;;;;;;8.00;3.30;;;27.60;53.60;;;27.97;35.73;95425.94;5046961;28;20466;-60
2023/09/08 09:30:27;;;;;;;9.90;3.40;;;27.50;54.30;;;28.01;36.68;95413.56;5044245;28;20471;-61
2023/09/08 09:33:02;;;;;;;5.33;3.50;;;27.50;54.80;;;28.29;36.56;95423.66;5032834;28;20922;-61
2023/09/08 09:35:43;;;;;;;5.10;3.70;;;27.70;54.90;;;28.56;35.41;95423.94;5035808;28;20999;-62
2023/09/08 09:38:11;;;;;;;3.23;2.93;;;27.90;54.40;;;28.70;36.13;95421.81;5029930;28;20471;-60
2023/09/08 09:40:38;;;;;;;7.53;3.40;;;28.00;54.30;;;28.82;36.01;95418.25;5036261;28;20988;-62
2023/09/08 09:43:08;;;;;;;5.47;3.10;;;28.20;54.10;;;28.73;35.14;95415.91;5035827;28;20468;-61
2023/09/08 09:45:35;;;;;;;20.87;3.93;;;28.20;53.60;;;28.57;36.14;95422.91;5042452;28;20459;-62
2023/09/08 09:48:04;;;;;;;4.30;3.30;;;28.10;53.90;;;28.41;35.76;95429.03;5037790;28;20551;-61
2023/09/08 09:50:33;;;;;;;3.20;3.00;;;27.90;54.00;;;28.30;36.03;95421.78;5035017;28;20602;-60
2023/09/08 09:53:02;;;;;;;5.17;3.23;;;27.80;54.30;;;28.19;36.62;95416.13;5045234;28;21000;-61
2023/09/08 09:55:30;;;;;;;14.83;3.63;;;27.70;54.50;;;28.04;36.55;95423.91;5041807;28;20495;-61
2023/09/08 09:58:00;;;;;;;3.73;2.93;;;27.60;54.90;;;27.86;36.42;95417.53;5039437;28;20513;-60
2023/09/08 10:00:29;;;;;;;3.80;3.50;;;27.40;54.70;;;27.69;37.07;95408.50;5036556;28;20472;-61
2023/09/08 10:02:56;;;;;;;4.50;3.50;;;27.20;54.70;;;27.60;37.04;95407.19;5037954;28;20887;-60
2023/09/08 10:05:25;;;;;;;10.60;4.13;;;27.20;55.40;;;27.59;37.57;95414.50;5034596;28;20461;-62
2023/09/08 10:07:52;;;;;;;3.70;3.40;;;27.10;55.70;;;27.64;37.71;95408.38;5035131;28;21020;-62
2023/09/08 10:10:20;;;;;;;3.87;3.57;;;27.10;55.80;;;27.63;37.20;95406.72;5033966;28;20552;-60
2023/09/08 10:12:53;;;;;;;4.40;3.50;;;27.10;55.90;;;27.64;37.76;95400.28;5033544;28;20526;-60
2023/09/08 10:15:22;;;;;;;4.17;3.57;;;27.10;56.10;;;27.69;37.43;95395.78;5032859;28;20558;-59
2023/09/08 10:17:55;;;;;;;5.00;3.60;;;27.20;56.20;;;27.80;37.97;95394.16;5038138;28;20480;-61
2023/09/08 10:20:24;;;;;;;7.00;3.50;;;27.20;56.20;;;27.87;37.53;95386.75;5033340;28;20482;-60
2023/09/08 10:22:55;;;;;;;6.90;3.93;;;27.30;56.10;;;27.87;37.73;95389.47;5038710;28;20890;-61